Time;durP1;ratioP1;P1;durP2;ratioP2;P2;SDS_P1;SDS_P2;PMS_P1;PMS_P2;Temp;Humidity;BMP_temperature;BMP_pressure;BME280_temperature;BME280_humidity;BME280_pressure;Samples;Min_cycle;Max_cycle;Signal;HPM_P1;HPM_P2
2022/01/23 00:00:33;;;;;;;8.13;6.70;;;;;;;;;;5035990;28;20112;-75
2022/01/23 00:03:01;;;;;;;6.88;6.00;;;;;;;;;;5018800;28;20130;-75
2022/01/23 00:05:33;;;;;;;6.78;6.13;;;;;;;;;;5034223;28;20742;-76
2022/01/23 00:07:58;;;;;;;7.55;5.97;;;;;;;;;;5036158;28;20068;-75
2022/01/23 00:10:24;;;;;;;6.95;6.18;;;;;;;;;;5013136;28;20495;-76
2022/01/23 00:12:51;;;;;;;7.13;6.03;;;;;;;;;;5020805;28;20398;-76
2022/01/23 00:18:00;;;;;;;6.90;6.10;;;;;;;;;;5041928;28;20032;-75
2022/01/23 00:20:25;;;;;;;7.45;6.45;;;;;;;;;;5025204;28;20557;-76
2022/01/23 00:22:56;;;;;;;6.85;5.97;;;;;;;;;;5021392;28;20044;-76
2022/01/23 00:30:50;;;;;;;7.13;6.43;;;;;;;;;;5035562;28;20036;-75
2022/01/23 00:33:16;;;;;;;7.53;5.95;;;;;;;;;;5000985;28;20079;-76
2022/01/23 00:35:43;;;;;;;7.43;6.15;;;;;;;;;;5008885;28;20041;-75
2022/01/23 00:38:09;;;;;;;7.38;6.15;;;;;;;;;;4984535;28;20059;-76
2022/01/23 00:40:35;;;;;;;7.10;6.40;;;;;;;;;;5000875;28;20037;-75
2022/01/23 00:43:01;;;;;;;6.75;6.03;;;;;;;;;;5025716;28;20037;-76
2022/01/23 00:45:31;;;;;;;6.93;6.20;;;;;;;;;;5008264;28;20123;-76
2022/01/23 00:48:06;;;;;;;7.30;6.22;;;;;;;;;;5031295;28;20039;-76
2022/01/23 00:50:34;;;;;;;6.75;5.97;;;;;;;;;;5017060;28;20032;-76
2022/01/23 00:53:00;;;;;;;7.63;6.45;;;;;;;;;;5001932;28;20052;-76
2022/01/23 00:55:25;;;;;;;7.00;6.30;;;;;;;;;;5011468;28;20037;-75
2022/01/23 00:57:51;;;;;;;8.48;6.07;;;;;;;;;;5017029;28;20514;-75
2022/01/23 01:00:17;;;;;;;7.18;6.40;;;;;;;;;;5028197;28;20384;-76
2022/01/23 01:02:42;;;;;;;6.75;6.05;;;;;;;;;;5000784;28;20103;-76
2022/01/23 01:05:08;;;;;;;7.03;6.05;;;;;;;;;;5016791;28;20044;-75
2022/01/23 01:07:34;;;;;;;6.88;6.18;;;;;;;;;;5016980;28;20033;-75
2022/01/23 01:10:08;;;;;;;6.75;5.72;;;;;;;;;;5021166;28;20070;-75
2022/01/23 01:12:40;;;;;;;7.20;5.50;;;;;;;;;;5044954;28;20029;-75
2022/01/23 01:31:25;;;;;;;7.28;5.93;;;;;;;;;;5054693;28;20037;-76
2022/01/23 01:34:00;;;;;;;7.53;5.80;;;;;;;;;;5025748;28;20037;-75
2022/01/23 01:38:53;;;;;;;6.72;6.03;;;;;;;;;;5023480;28;20506;-76
2022/01/23 01:41:19;;;;;;;6.38;5.55;;;;;;;;;;5042761;28;20079;-75
2022/01/23 01:43:48;;;;;;;6.75;6.15;;;;;;;;;;5018632;28;20463;-75
2022/01/23 01:46:14;;;;;;;6.13;5.53;;;;;;;;;;5027004;28;20032;-76
2022/01/23 01:48:39;;;;;;;6.70;5.97;;;;;;;;;;5022304;28;20029;-75
2022/01/23 01:51:13;;;;;;;6.78;5.43;;;;;;;;;;5005987;28;20028;-75
2022/01/23 01:53:39;;;;;;;7.28;6.03;;;;;;;;;;5040276;28;20534;-75
2022/01/23 01:56:06;;;;;;;6.50;5.68;;;;;;;;;;5038750;28;20043;-75
2022/01/23 02:01:11;;;;;;;6.00;5.40;;;;;;;;;;5039586;28;20097;-76
2022/01/23 02:08:21;;;;;;;7.07;6.38;;;;;;;;;;5005220;28;20188;-75
2022/01/23 02:09:12;;;;;;;6.85;5.43;;;;;;;;;;5040037;28;20498;-75
2022/01/23 02:12:08;;;;;;;5.93;5.32;;;;;;;;;;5032192;28;20423;-76
2022/01/23 02:17:51;;;;;;;5.85;5.25;;;;;;;;;;5019634;28;20094;-76
2022/01/23 02:25:03;;;;;;;6.40;5.80;;;;;;;;;;5035191;28;20098;-75
2022/01/23 02:57:06;;;;;;;5.60;4.65;;;;;;;;;;5028185;28;20036;-76
2022/01/23 02:59:36;;;;;;;5.43;4.88;;;;;;;;;;5024711;28;20036;-76
2022/01/23 03:04:31;;;;;;;5.65;4.80;;;;;;;;;;5023153;28;20410;-75
2022/01/23 03:07:14;;;;;;;5.68;5.00;;;;;;;;;;5038251;28;20127;-75
2022/01/23 03:14:51;;;;;;;5.93;4.80;;;;;;;;;;5056242;28;20032;-75
2022/01/23 03:28:19;;;;;;;5.25;4.60;;;;;;;;;;5036588;28;20040;-75
2022/01/23 03:30:54;;;;;;;6.45;5.38;;;;;;;;;;5070079;28;20033;-75
2022/01/23 03:33:20;;;;;;;5.60;4.32;;;;;;;;;;5040183;28;20049;-76
2022/01/23 03:35:46;;;;;;;5.43;4.90;;;;;;;;;;5041286;28;20033;-75
2022/01/23 03:38:11;;;;;;;5.20;4.45;;;;;;;;;;5046970;28;20036;-75
2022/01/23 03:40:37;;;;;;;5.03;4.20;;;;;;;;;;5037644;28;20044;-75
2022/01/23 03:43:14;;;;;;;5.63;4.75;;;;;;;;;;5018003;28;20438;-76
2022/01/23 03:50:40;;;;;;;4.90;4.40;;;;;;;;;;5019619;28;20083;-76
2022/01/23 03:53:06;;;;;;;5.38;4.32;;;;;;;;;;5009742;28;20045;-76
2022/01/23 03:55:31;;;;;;;4.95;4.45;;;;;;;;;;5006185;28;20043;-75
2022/01/23 03:57:57;;;;;;;5.47;4.43;;;;;;;;;;5053938;28;20448;-76
2022/01/23 04:00:23;;;;;;;4.88;4.38;;;;;;;;;;5025287;28;20041;-75
2022/01/23 04:02:49;;;;;;;5.15;4.30;;;;;;;;;;5017684;28;20441;-76
2022/01/23 04:05:14;;;;;;;4.88;4.38;;;;;;;;;;5017484;28;20380;-75
2022/01/23 04:07:39;;;;;;;5.20;4.28;;;;;;;;;;5017012;28;20041;-75
2022/01/23 04:10:05;;;;;;;4.95;4.22;;;;;;;;;;5027911;28;20409;-75
2022/01/23 04:12:49;;;;;;;5.05;4.00;;;;;;;;;;5008822;28;20431;-76
2022/01/23 04:33:48;;;;;;;4.28;3.70;;;;;;;;;;5033412;28;20041;-75
2022/01/23 05:01:14;;;;;;;5.15;3.88;;;;;;;;;;5044392;28;20044;-75
2022/01/23 05:06:07;;;;;;;4.32;3.75;;;;;;;;;;5020220;28;20124;-76
2022/01/23 05:08:35;;;;;;;4.75;3.97;;;;;;;;;;5003695;28;20056;-76
2022/01/23 05:11:01;;;;;;;4.70;4.00;;;;;;;;;;5026958;28;20079;-75
2022/01/23 05:13:27;;;;;;;6.18;4.25;;;;;;;;;;5020482;28;20132;-75
2022/01/23 05:15:53;;;;;;;5.72;4.88;;;;;;;;;;5040775;28;20447;-76
2022/01/23 05:18:19;;;;;;;5.57;4.45;;;;;;;;;;5040087;28;20036;-76
2022/01/23 05:20:46;;;;;;;4.20;3.78;;;;;;;;;;5019503;28;20513;-76
2022/01/23 05:23:12;;;;;;;5.00;4.20;;;;;;;;;;5025695;28;20044;-76
2022/01/23 05:25:38;;;;;;;5.00;4.15;;;;;;;;;;5024846;28;20036;-75
2022/01/23 05:28:04;;;;;;;4.45;3.55;;;;;;;;;;5022502;28;20032;-75
2022/01/23 05:30:29;;;;;;;5.80;3.85;;;;;;;;;;5054031;28;20410;-75
2022/01/23 05:32:57;;;;;;;5.00;3.97;;;;;;;;;;5018709;28;20115;-76
2022/01/23 05:35:24;;;;;;;4.57;3.85;;;;;;;;;;5004429;28;20036;-75
2022/01/23 05:37:50;;;;;;;5.20;4.28;;;;;;;;;;5031371;28;20041;-75
2022/01/23 05:40:17;;;;;;;4.85;4.28;;;;;;;;;;5038220;28;20039;-76
2022/01/23 05:42:42;;;;;;;5.15;4.18;;;;;;;;;;5036788;28;20068;-75
2022/01/23 05:45:08;;;;;;;4.45;4.05;;;;;;;;;;5020315;28;20025;-76
2022/01/23 05:47:34;;;;;;;5.78;4.82;;;;;;;;;;5022802;28;20037;-76
2022/01/23 05:50:00;;;;;;;5.30;4.38;;;;;;;;;;5037875;28;20033;-76
2022/01/23 05:52:25;;;;;;;4.97;4.13;;;;;;;;;;5019506;28;20041;-76
2022/01/23 05:54:51;;;;;;;5.53;3.63;;;;;;;;;;5003050;28;20063;-75
2022/01/23 05:57:16;;;;;;;5.57;4.25;;;;;;;;;;5037049;28;20506;-75
2022/01/23 05:59:41;;;;;;;4.75;3.97;;;;;;;;;;5030195;28;20036;-75
2022/01/23 06:02:07;;;;;;;5.00;3.90;;;;;;;;;;5019582;28;20048;-75
2022/01/23 06:04:33;;;;;;;4.80;4.13;;;;;;;;;;5030758;28;20052;-76
2022/01/23 06:06:59;;;;;;;4.80;3.80;;;;;;;;;;5023113;28;20079;-76
2022/01/23 06:09:25;;;;;;;5.88;4.00;;;;;;;;;;5055067;28;20452;-76
2022/01/23 06:11:51;;;;;;;5.30;3.90;;;;;;;;;;5038480;28;20055;-75
2022/01/23 06:14:17;;;;;;;6.03;4.38;;;;;;;;;;5019219;28;20066;-75
2022/01/23 06:16:43;;;;;;;4.55;3.92;;;;;;;;;;5047993;28;20482;-75
2022/01/23 06:19:08;;;;;;;4.35;3.80;;;;;;;;;;5038645;28;20040;-75
2022/01/23 06:21:34;;;;;;;4.63;4.13;;;;;;;;;;5009559;28;20044;-75
2022/01/23 06:24:08;;;;;;;5.15;4.03;;;;;;;;;;5033873;28;20036;-75
2022/01/23 06:26:45;;;;;;;5.50;3.95;;;;;;;;;;5030401;28;20035;-75
2022/01/23 06:29:11;;;;;;;4.95;4.00;;;;;;;;;;5022463;28;20033;-74
2022/01/23 06:31:37;;;;;;;6.07;4.32;;;;;;;;;;5022973;28;20116;-74
2022/01/23 06:34:05;;;;;;;5.28;3.90;;;;;;;;;;5032336;28;20040;-74
2022/01/23 06:36:31;;;;;;;5.25;3.88;;;;;;;;;;5016606;28;20099;-74
2022/01/23 06:38:56;;;;;;;6.38;4.88;;;;;;;;;;5021088;28;20040;-75
2022/01/23 06:41:22;;;;;;;6.05;4.25;;;;;;;;;;5054342;28;20063;-74
2022/01/23 06:43:47;;;;;;;6.53;4.40;;;;;;;;;;5035308;28;20082;-74
2022/01/23 06:46:14;;;;;;;6.40;4.40;;;;;;;;;;5036498;28;20036;-74
2022/01/23 06:48:39;;;;;;;5.18;3.95;;;;;;;;;;5063437;28;20121;-74
2022/01/23 06:51:04;;;;;;;4.80;3.90;;;;;;;;;;5018556;28;20037;-74
2022/01/23 06:53:30;;;;;;;6.68;4.22;;;;;;;;;;5047958;28;20041;-74
2022/01/23 06:55:55;;;;;;;6.75;4.45;;;;;;;;;;5038528;28;20404;-74
2022/01/23 06:58:21;;;;;;;5.57;4.38;;;;;;;;;;5037882;28;20401;-74
2022/01/23 07:00:46;;;;;;;5.25;3.90;;;;;;;;;;5053773;28;20196;-76
2022/01/23 07:03:12;;;;;;;5.50;3.95;;;;;;;;;;5019644;28;20037;-76
2022/01/23 07:05:37;;;;;;;5.78;4.93;;;;;;;;;;5013974;28;20037;-75
2022/01/23 07:08:04;;;;;;;4.72;3.90;;;;;;;;;;5017786;28;20110;-76
2022/01/23 07:10:29;;;;;;;5.05;3.70;;;;;;;;;;5019614;28;20384;-76
2022/01/23 07:12:54;;;;;;;5.70;3.83;;;;;;;;;;5010283;28;20037;-75
2022/01/23 07:15:20;;;;;;;12.18;5.65;;;;;;;;;;5013010;28;20068;-75
2022/01/23 07:17:46;;;;;;;5.30;4.28;;;;;;;;;;5033342;28;20376;-75
2022/01/23 07:20:11;;;;;;;4.65;3.80;;;;;;;;;;5035655;28;20041;-77
2022/01/23 07:22:37;;;;;;;7.45;3.90;;;;;;;;;;5005925;28;20434;-75
2022/01/23 07:25:04;;;;;;;6.53;4.30;;;;;;;;;;5021409;28;20418;-76
2022/01/23 07:27:34;;;;;;;5.88;3.55;;;;;;;;;;5021747;28;20119;-76
2022/01/23 07:30:00;;;;;;;6.05;4.30;;;;;;;;;;5038910;28;20059;-76
2022/01/23 07:32:25;;;;;;;5.00;4.43;;;;;;;;;;5050623;28;20518;-75
2022/01/23 07:34:52;;;;;;;8.05;3.85;;;;;;;;;;5027521;28;20491;-75
2022/01/23 07:37:17;;;;;;;7.10;4.53;;;;;;;;;;5030959;28;20510;-75
2022/01/23 07:39:43;;;;;;;6.75;4.22;;;;;;;;;;5037136;28;20094;-75
2022/01/23 07:42:08;;;;;;;6.07;4.68;;;;;;;;;;5020945;28;20055;-75
2022/01/23 07:44:34;;;;;;;6.70;4.82;;;;;;;;;;5037508;28;20036;-75
2022/01/23 07:46:59;;;;;;;6.80;4.80;;;;;;;;;;5053818;28;20040;-75
2022/01/23 07:49:25;;;;;;;6.97;4.70;;;;;;;;;;5033786;28;20419;-75
2022/01/23 07:51:50;;;;;;;5.47;4.15;;;;;;;;;;5024522;28;20410;-75
2022/01/23 07:54:15;;;;;;;7.32;4.72;;;;;;;;;;5042831;28;20144;-75
2022/01/23 07:56:42;;;;;;;6.88;4.13;;;;;;;;;;5043445;28;20123;-75
2022/01/23 07:59:09;;;;;;;8.05;4.70;;;;;;;;;;5036711;28;20510;-75
2022/01/23 08:01:38;;;;;;;6.25;4.53;;;;;;;;;;5018641;28;20090;-76
2022/01/23 08:04:07;;;;;;;6.63;4.60;;;;;;;;;;5021777;28;20041;-75
2022/01/23 08:06:39;;;;;;;7.50;4.68;;;;;;;;;;5028247;28;20106;-76
2022/01/23 08:09:05;;;;;;;8.93;4.22;;;;;;;;;;5017985;28;20033;-75
2022/01/23 08:11:30;;;;;;;10.07;4.72;;;;;;;;;;5002081;28;20095;-76
2022/01/23 08:13:56;;;;;;;7.20;4.97;;;;;;;;;;5016888;28;20049;-75
2022/01/23 08:16:21;;;;;;;6.53;4.15;;;;;;;;;;5050313;28;20076;-75
2022/01/23 08:18:47;;;;;;;6.65;4.45;;;;;;;;;;5011721;28;20041;-76
2022/01/23 08:21:12;;;;;;;6.07;4.43;;;;;;;;;;5017611;28;20450;-75
2022/01/23 08:23:38;;;;;;;7.05;5.35;;;;;;;;;;5033971;28;20110;-76
2022/01/23 08:26:05;;;;;;;8.15;5.10;;;;;;;;;;5009993;28;20071;-76
2022/01/23 08:28:30;;;;;;;8.85;4.70;;;;;;;;;;5036909;28;20040;-76
2022/01/23 08:30:56;;;;;;;15.10;5.72;;;;;;;;;;5033093;28;20044;-75
2022/01/23 08:33:21;;;;;;;9.32;4.95;;;;;;;;;;5043816;28;20036;-75
2022/01/23 08:35:46;;;;;;;7.68;5.20;;;;;;;;;;5021109;28;20037;-75
2022/01/23 08:38:13;;;;;;;7.40;5.43;;;;;;;;;;5014317;28;20124;-75
2022/01/23 08:43:09;;;;;;;10.57;5.97;;;;;;;;;;5041568;28;20499;-75
2022/01/23 08:45:34;;;;;;;8.25;5.45;;;;;;;;;;5030243;28;20044;-75
2022/01/23 08:47:59;;;;;;;9.90;6.15;;;;;;;;;;5028673;28;20102;-75
2022/01/23 08:50:25;;;;;;;9.75;6.00;;;;;;;;;;5023274;28;20445;-75
2022/01/23 08:52:51;;;;;;;8.48;5.90;;;;;;;;;;5012548;28;20052;-75
2022/01/23 08:55:17;;;;;;;8.95;5.95;;;;;;;;;;5057065;28;20086;-75
2022/01/23 08:57:43;;;;;;;12.63;6.00;;;;;;;;;;5043725;28;20120;-75
2022/01/23 09:00:08;;;;;;;17.95;12.02;;;;;;;;;;5020584;28;20041;-75
2022/01/23 09:02:34;;;;;;;22.20;12.68;;;;;;;;;;5025458;28;20049;-75
2022/01/23 09:05:00;;;;;;;21.23;14.25;;;;;;;;;;5023601;28;20040;-75
2022/01/23 09:07:25;;;;;;;24.67;18.20;;;;;;;;;;5050451;28;20457;-75
2022/01/23 09:09:53;;;;;;;26.80;18.80;;;;;;;;;;5008533;28;20037;-75
2022/01/23 09:12:41;;;;;;;24.95;19.58;;;;;;;;;;5047192;28;20107;-75
2022/01/23 09:15:07;;;;;;;26.15;18.77;;;;;;;;;;5011003;28;20403;-73
2022/01/23 09:17:33;;;;;;;25.70;18.65;;;;;;;;;;5032347;28;20041;-73
2022/01/23 09:19:59;;;;;;;26.45;18.05;;;;;;;;;;5036989;28;20510;-73
2022/01/23 09:22:28;;;;;;;27.05;17.42;;;;;;;;;;5021538;28;20044;-73
2022/01/23 09:24:54;;;;;;;28.85;17.58;;;;;;;;;;5032643;28;20119;-73
2022/01/23 09:27:20;;;;;;;21.98;16.27;;;;;;;;;;5015792;28;20041;-73
2022/01/23 09:29:49;;;;;;;26.08;16.33;;;;;;;;;;5029639;28;20383;-73
2022/01/23 09:32:15;;;;;;;20.27;16.63;;;;;;;;;;5048187;28;20032;-73
2022/01/23 09:34:41;;;;;;;24.65;15.57;;;;;;;;;;5027087;28;20033;-73
2022/01/23 09:37:08;;;;;;;22.92;15.15;;;;;;;;;;5036068;28;20166;-73
2022/01/23 09:39:34;;;;;;;21.10;14.48;;;;;;;;;;5027615;28;20043;-73
2022/01/23 09:42:01;;;;;;;23.70;14.73;;;;;;;;;;5011419;28;20496;-73
2022/01/23 09:44:27;;;;;;;25.38;13.90;;;;;;;;;;5031764;28;20510;-73
2022/01/23 09:46:52;;;;;;;21.75;15.10;;;;;;;;;;5039470;28;20036;-74
2022/01/23 09:49:18;;;;;;;22.42;15.45;;;;;;;;;;5023010;28;20047;-73
2022/01/23 09:51:45;;;;;;;24.77;15.55;;;;;;;;;;5019430;28;20041;-75
2022/01/23 09:54:12;;;;;;;22.05;15.85;;;;;;;;;;5002821;28;20037;-76
2022/01/23 09:56:38;;;;;;;19.63;15.15;;;;;;;;;;5028247;28;20041;-75
2022/01/23 09:59:03;;;;;;;20.63;14.65;;;;;;;;;;5013682;28;20514;-75
2022/01/23 10:01:29;;;;;;;20.10;14.27;;;;;;;;;;5003305;28;20029;-76
2022/01/23 10:03:54;;;;;;;20.92;14.45;;;;;;;;;;5019480;28;20037;-74
2022/01/23 10:06:20;;;;;;;21.05;13.35;;;;;;;;;;5035746;28;20410;-75
2022/01/23 10:08:46;;;;;;;22.33;13.82;;;;;;;;;;5035635;28;20422;-74
2022/01/23 10:11:13;;;;;;;20.23;13.15;;;;;;;;;;5023243;28;20036;-75
2022/01/23 10:13:43;;;;;;;14.95;12.77;;;;;;;;;;5055409;28;20040;-74
2022/01/23 10:16:09;;;;;;;16.23;12.75;;;;;;;;;;5013214;28;20044;-74
2022/01/23 10:18:36;;;;;;;19.63;12.80;;;;;;;;;;5036719;28;20036;-74
2022/01/23 10:21:01;;;;;;;17.05;12.15;;;;;;;;;;5021393;28;20071;-74
2022/01/23 10:23:27;;;;;;;27.63;11.98;;;;;;;;;;5065175;28;20119;-74
2022/01/23 10:25:53;;;;;;;17.58;12.40;;;;;;;;;;5027465;28;20052;-74
2022/01/23 10:28:28;;;;;;;15.85;11.93;;;;;;;;;;5017176;28;20037;-74
2022/01/23 10:30:56;;;;;;;17.30;10.90;;;;;;;;;;5035140;28;20033;-74
2022/01/23 10:33:36;;;;;;;16.45;11.32;;;;;;;;;;5018995;28;20112;-74
2022/01/23 10:36:12;;;;;;;14.80;11.13;;;;;;;;;;5021021;28;20048;-74
2022/01/23 10:38:43;;;;;;;15.55;11.32;;;;;;;;;;5038885;28;20059;-74
2022/01/23 10:41:48;;;;;;;14.00;10.90;;;;;;;;;;5073188;28;20051;-74
2022/01/23 10:49:55;;;;;;;15.38;9.93;;;;;;;;;;5073086;28;20039;-74
2022/01/23 10:52:40;;;;;;;18.02;9.68;;;;;;;;;;5072685;28;20056;-74
2022/01/23 10:55:12;;;;;;;14.57;9.27;;;;;;;;;;5038078;28;20032;-74
2022/01/23 10:57:41;;;;;;;11.95;9.48;;;;;;;;;;5055206;28;20060;-74
2022/01/23 11:00:09;;;;;;;14.48;9.57;;;;;;;;;;5038192;28;20111;-74
2022/01/23 11:02:38;;;;;;;10.02;8.50;;;;;;;;;;5038176;28;20119;-74
2022/01/23 11:05:05;;;;;;;13.88;8.85;;;;;;;;;;5055133;28;20032;-74
2022/01/23 11:07:31;;;;;;;10.85;8.77;;;;;;;;;;5037425;28;20056;-74
2022/01/23 11:10:16;;;;;;;10.38;8.88;;;;;;;;;;5072409;28;20055;-74
2022/01/23 11:18:02;;;;;;;11.18;8.30;;;;;;;;;;5072152;28;20383;-74
2022/01/23 11:20:47;;;;;;;10.05;7.63;;;;;;;;;;5021484;28;20398;-74
2022/01/23 11:23:30;;;;;;;11.77;7.70;;;;;;;;;;5038872;28;20036;-74
2022/01/23 11:25:55;;;;;;;9.05;7.82;;;;;;;;;;5055159;28;20119;-74
2022/01/23 11:28:47;;;;;;;9.88;6.93;;;;;;;;;;5070807;28;20529;-74
2022/01/23 11:31:18;;;;;;;9.45;6.90;;;;;;;;;;5051864;28;20515;-74
2022/01/23 11:33:44;;;;;;;10.10;7.40;;;;;;;;;;5034890;28;20503;-74
2022/01/23 11:36:09;;;;;;;8.85;7.28;;;;;;;;;;5034413;28;20119;-74
2022/01/23 11:38:35;;;;;;;7.78;6.30;;;;;;;;;;5017679;28;20041;-74
2022/01/23 11:54:50;;;;;;;8.68;6.30;;;;;;;;;;5022546;28;20044;-74
2022/01/23 11:57:34;;;;;;;7.85;6.70;;;;;;;;;;5033977;28;20488;-74
2022/01/23 12:00:10;;;;;;;10.27;7.25;;;;;;;;;;5033859;28;20037;-74
2022/01/23 12:02:38;;;;;;;8.82;7.15;;;;;;;;;;5019124;28;20029;-74
2022/01/23 12:05:10;;;;;;;7.32;6.32;;;;;;;;;;5018122;28;20037;-74
2022/01/23 12:07:36;;;;;;;9.20;6.80;;;;;;;;;;5050957;28;20427;-74
2022/01/23 12:10:46;;;;;;;8.38;6.13;;;;;;;;;;5017703;28;20048;-74
2022/01/23 12:16:25;;;;;;;8.05;6.32;;;;;;;;;;5021415;28;20037;-74
2022/01/23 12:18:51;;;;;;;8.35;6.28;;;;;;;;;;5022960;28;20041;-74
2022/01/23 12:21:30;;;;;;;9.02;6.95;;;;;;;;;;5016509;28;20514;-74
2022/01/23 12:24:02;;;;;;;7.32;6.03;;;;;;;;;;5020837;28;20124;-74
2022/01/23 12:26:27;;;;;;;13.85;7.32;;;;;;;;;;5033621;28;20049;-74
2022/01/23 12:28:53;;;;;;;9.50;6.75;;;;;;;;;;5017860;28;20044;-74
2022/01/23 12:31:23;;;;;;;7.38;6.65;;;;;;;;;;5035974;28;20036;-74
2022/01/23 12:33:53;;;;;;;7.78;6.07;;;;;;;;;;5034514;28;20063;-74
2022/01/23 12:36:21;;;;;;;8.43;5.95;;;;;;;;;;5027687;28;20041;-73
2022/01/23 12:38:54;;;;;;;10.98;7.22;;;;;;;;;;5015523;28;20419;-74
2022/01/23 12:41:26;;;;;;;8.48;6.32;;;;;;;;;;5018219;28;20041;-74
2022/01/23 12:43:55;;;;;;;8.13;6.27;;;;;;;;;;5065173;28;20033;-74
2022/01/23 12:46:40;;;;;;;11.30;6.22;;;;;;;;;;5033300;28;20029;-74
2022/01/23 12:49:15;;;;;;;8.35;6.50;;;;;;;;;;5056918;28;20576;-74
2022/01/23 12:51:42;;;;;;;9.75;6.18;;;;;;;;;;5071055;28;20113;-74
2022/01/23 12:54:15;;;;;;;9.85;6.78;;;;;;;;;;5036847;28;20044;-74
2022/01/23 12:56:44;;;;;;;9.73;6.70;;;;;;;;;;5042314;28;20068;-74
2022/01/23 12:59:13;;;;;;;8.93;6.78;;;;;;;;;;5039143;28;20039;-74
2022/01/23 13:01:45;;;;;;;8.57;6.82;;;;;;;;;;5020997;28;20063;-74
2022/01/23 13:04:11;;;;;;;10.30;6.55;;;;;;;;;;5021431;28;20033;-74
2022/01/23 13:06:58;;;;;;;7.72;6.93;;;;;;;;;;5034903;28;20033;-74
2022/01/23 13:14:37;;;;;;;13.55;9.57;;;;;;;;;;5021636;28;20450;-74
2022/01/23 13:28:52;;;;;;;12.23;7.68;;;;;;;;;;5043751;28;20033;-74
2022/01/23 13:30:48;;;;;;;16.20;8.07;;;;;;;;;;5025391;28;20411;-75
2022/01/23 13:33:19;;;;;;;12.98;10.30;;;;;;;;;;5019803;28;20108;-75
2022/01/23 13:35:50;;;;;;;13.57;8.93;;;;;;;;;;5038927;28;20036;-75
2022/01/23 13:38:16;;;;;;;13.93;8.93;;;;;;;;;;5055659;28;20075;-75
2022/01/23 13:40:42;;;;;;;13.40;10.45;;;;;;;;;;5031104;28;20037;-75
2022/01/23 13:51:55;;;;;;;9.68;8.05;;;;;;;;;;5066296;28;20056;-75
2022/01/23 13:59:48;;;;;;;12.45;7.35;;;;;;;;;;5058334;28;20119;-75
2022/01/23 14:02:32;;;;;;;11.27;7.85;;;;;;;;;;5031094;28;20402;-75
2022/01/23 14:05:11;;;;;;;8.95;7.55;;;;;;;;;;5041166;28;20111;-75
2022/01/23 14:07:37;;;;;;;11.73;7.63;;;;;;;;;;5039658;28;20124;-75
2022/01/23 14:10:32;;;;;;;11.40;7.68;;;;;;;;;;5039054;28;20120;-75
2022/01/23 14:13:08;;;;;;;13.98;8.45;;;;;;;;;;5054862;28;20392;-75
2022/01/23 14:15:34;;;;;;;9.73;7.18;;;;;;;;;;5039301;28;20036;-75
2022/01/23 14:18:04;;;;;;;12.30;8.25;;;;;;;;;;5055123;28;20453;-75
2022/01/23 14:20:32;;;;;;;10.80;8.30;;;;;;;;;;5008414;28;20394;-74
2022/01/23 14:22:58;;;;;;;14.70;8.07;;;;;;;;;;5043493;28;20608;-75
2022/01/23 14:25:27;;;;;;;13.95;7.95;;;;;;;;;;5055708;28;20040;-75
2022/01/23 14:28:13;;;;;;;13.80;8.07;;;;;;;;;;5048638;28;20029;-75
2022/01/23 14:30:42;;;;;;;12.50;8.13;;;;;;;;;;5003616;28;20087;-75
2022/01/23 14:33:17;;;;;;;12.05;8.02;;;;;;;;;;5036143;28;20041;-75
2022/01/23 14:35:42;;;;;;;10.85;7.82;;;;;;;;;;5036143;28;20036;-75
2022/01/23 14:38:18;;;;;;;12.27;7.07;;;;;;;;;;5038720;28;20039;-75
2022/01/23 14:40:56;;;;;;;12.05;7.35;;;;;;;;;;5022035;28;20533;-75
2022/01/23 14:43:21;;;;;;;12.60;7.03;;;;;;;;;;5055662;28;20039;-75
2022/01/23 14:45:50;;;;;;;13.40;7.43;;;;;;;;;;5022757;28;20045;-75
2022/01/23 14:48:16;;;;;;;9.57;6.70;;;;;;;;;;5024658;28;20114;-75
2022/01/23 14:50:44;;;;;;;11.63;7.15;;;;;;;;;;5012699;28;20758;-75
2022/01/23 14:53:16;;;;;;;9.52;7.35;;;;;;;;;;5012764;28;20116;-75
2022/01/23 14:55:47;;;;;;;10.93;6.53;;;;;;;;;;5035134;28;20049;-75
2022/01/23 14:58:13;;;;;;;8.90;6.22;;;;;;;;;;5018709;28;20037;-75
2022/01/23 15:00:38;;;;;;;7.72;6.00;;;;;;;;;;5035760;28;20037;-75
2022/01/23 15:03:05;;;;;;;8.77;7.00;;;;;;;;;;5054600;28;20042;-75
2022/01/23 15:05:34;;;;;;;9.35;6.03;;;;;;;;;;5038195;28;20078;-75
2022/01/23 15:08:00;;;;;;;9.77;6.25;;;;;;;;;;5022873;28;20041;-75
2022/01/23 15:10:26;;;;;;;10.85;6.38;;;;;;;;;;5034698;28;20510;-75
2022/01/23 15:12:52;;;;;;;8.18;6.22;;;;;;;;;;5001964;28;20079;-75
2022/01/23 15:15:17;;;;;;;8.02;5.38;;;;;;;;;;5017642;28;20048;-75
2022/01/23 15:17:42;;;;;;;9.65;5.53;;;;;;;;;;5001805;28;20441;-75
2022/01/23 15:20:09;;;;;;;10.63;5.43;;;;;;;;;;5049142;28;20426;-76
2022/01/23 15:22:34;;;;;;;7.28;5.65;;;;;;;;;;5036801;28;20511;-75
2022/01/23 15:25:00;;;;;;;9.15;6.13;;;;;;;;;;5053376;28;20045;-76
2022/01/23 15:27:26;;;;;;;10.68;5.65;;;;;;;;;;5036664;28;20094;-75
2022/01/23 15:29:51;;;;;;;9.43;6.35;;;;;;;;;;5020138;28;20495;-75
2022/01/23 15:32:17;;;;;;;10.43;5.63;;;;;;;;;;5027206;28;20564;-75
2022/01/23 15:34:42;;;;;;;9.85;5.97;;;;;;;;;;5026078;28;20071;-75
2022/01/23 15:37:08;;;;;;;13.05;6.43;;;;;;;;;;5037611;28;20043;-75
2022/01/23 15:39:34;;;;;;;10.80;6.30;;;;;;;;;;5054419;28;20036;-75
2022/01/23 15:41:59;;;;;;;10.13;6.15;;;;;;;;;;5038749;28;20041;-75
2022/01/23 15:44:25;;;;;;;10.18;6.38;;;;;;;;;;5033566;28;20112;-75
2022/01/23 15:46:51;;;;;;;11.27;5.60;;;;;;;;;;5026757;28;20063;-75
2022/01/23 15:49:16;;;;;;;10.35;5.85;;;;;;;;;;5037163;28;20541;-76
2022/01/23 15:51:47;;;;;;;9.10;6.13;;;;;;;;;;5020903;28;20499;-75
2022/01/23 15:54:12;;;;;;;10.77;6.10;;;;;;;;;;5020830;28;20059;-76
2022/01/23 15:56:37;;;;;;;7.00;5.72;;;;;;;;;;5017309;28;20036;-76
2022/01/23 15:59:03;;;;;;;10.75;6.20;;;;;;;;;;5033537;28;20381;-76
2022/01/23 16:01:28;;;;;;;12.57;5.82;;;;;;;;;;5033361;28;20047;-76
2022/01/23 16:03:54;;;;;;;10.45;5.57;;;;;;;;;;5027708;28;20033;-76
2022/01/23 16:06:19;;;;;;;11.07;6.03;;;;;;;;;;5017503;28;20080;-76
2022/01/23 16:08:45;;;;;;;10.88;5.18;;;;;;;;;;5015818;28;20051;-76
2022/01/23 16:11:10;;;;;;;8.65;5.75;;;;;;;;;;5036973;28;20070;-76
2022/01/23 16:13:36;;;;;;;9.10;6.07;;;;;;;;;;5032501;28;20041;-76
2022/01/23 16:16:01;;;;;;;10.60;5.53;;;;;;;;;;5050229;28;20041;-76
2022/01/23 16:18:27;;;;;;;12.30;6.07;;;;;;;;;;5050293;28;20045;-76
2022/01/23 16:20:53;;;;;;;9.23;5.55;;;;;;;;;;5032806;28;20452;-76
2022/01/23 16:23:18;;;;;;;11.52;6.75;;;;;;;;;;5024417;28;20079;-76
2022/01/23 16:25:44;;;;;;;9.48;5.07;;;;;;;;;;5017101;28;20040;-76
2022/01/23 16:28:09;;;;;;;8.85;6.35;;;;;;;;;;5043190;28;20037;-76
2022/01/23 16:30:52;;;;;;;10.55;6.60;;;;;;;;;;5016674;28;20041;-76
2022/01/23 16:33:17;;;;;;;;;;;;;;;;;;5035179;28;20037;-76
2022/01/23 16:35:43;;;;;;;11.65;6.28;;;;;;;;;;5041797;28;19921;-76
2022/01/23 16:38:08;;;;;;;10.90;5.50;;;;;;;;;;5029517;28;20044;-76
2022/01/23 16:40:34;;;;;;;20.42;7.53;;;;;;;;;;5053529;28;20047;-76
2022/01/23 16:42:59;;;;;;;7.97;5.78;;;;;;;;;;5033169;28;20040;-76
2022/01/23 16:45:25;;;;;;;40.75;8.68;;;;;;;;;;5001077;28;20080;-76
2022/01/23 16:47:50;;;;;;;13.52;6.05;;;;;;;;;;5030064;28;20410;-76
2022/01/23 16:50:16;;;;;;;11.13;6.85;;;;;;;;;;5033693;28;20049;-76
2022/01/23 16:52:42;;;;;;;10.50;6.47;;;;;;;;;;5032806;28;20522;-76
2022/01/23 16:55:07;;;;;;;11.13;5.75;;;;;;;;;;5038765;28;20056;-76
2022/01/23 16:57:33;;;;;;;10.60;5.75;;;;;;;;;;5056661;28;20032;-75
2022/01/23 16:59:58;;;;;;;10.80;6.55;;;;;;;;;;5040250;28;20483;-76
2022/01/23 17:02:23;;;;;;;8.52;5.60;;;;;;;;;;5040052;28;20418;-77
2022/01/23 17:04:49;;;;;;;14.55;6.88;;;;;;;;;;5031375;28;20037;-76
2022/01/23 17:07:14;;;;;;;28.20;6.53;;;;;;;;;;5036259;28;20035;-76
2022/01/23 17:09:40;;;;;;;14.00;6.28;;;;;;;;;;5032341;28;20102;-76
2022/01/23 17:12:06;;;;;;;14.43;6.43;;;;;;;;;;5007295;28;20573;-76
2022/01/23 17:14:31;;;;;;;14.05;6.28;;;;;;;;;;5037372;28;20496;-76
2022/01/23 17:16:57;;;;;;;10.02;6.18;;;;;;;;;;5035590;28;20160;-76
2022/01/23 17:19:23;;;;;;;7.90;6.20;;;;;;;;;;5026836;28;20032;-76
2022/01/23 17:21:48;;;;;;;11.02;6.68;;;;;;;;;;5023546;28;20040;-76
2022/01/23 17:24:13;;;;;;;11.82;6.38;;;;;;;;;;5024758;28;20036;-75
2022/01/23 17:26:39;;;;;;;12.05;6.35;;;;;;;;;;5035762;28;20043;-74
2022/01/23 17:29:04;;;;;;;12.02;7.72;;;;;;;;;;5072855;28;20036;-74
2022/01/23 17:31:30;;;;;;;14.43;6.50;;;;;;;;;;5053973;28;20040;-74
2022/01/23 17:33:55;;;;;;;11.35;6.65;;;;;;;;;;5037785;28;20040;-74
2022/01/23 17:36:20;;;;;;;16.67;7.60;;;;;;;;;;5074349;28;20403;-74
2022/01/23 17:38:46;;;;;;;11.13;7.22;;;;;;;;;;5056545;28;20063;-77
2022/01/23 17:41:12;;;;;;;12.60;8.48;;;;;;;;;;5075926;28;20421;-77
2022/01/23 17:43:38;;;;;;;11.15;7.97;;;;;;;;;;5050439;28;20410;-77
2022/01/23 17:46:06;;;;;;;14.98;8.65;;;;;;;;;;5036477;28;20033;-75
2022/01/23 17:51:15;;;;;;;18.60;10.48;;;;;;;;;;5044653;28;20047;-76
2022/01/23 17:53:42;;;;;;;12.30;10.43;;;;;;;;;;5039184;28;20040;-77
2022/01/23 17:56:08;;;;;;;17.90;9.63;;;;;;;;;;5056442;28;20036;-76
2022/01/23 17:58:33;;;;;;;13.43;8.48;;;;;;;;;;5038241;28;20150;-77
2022/01/23 18:00:59;;;;;;;13.88;8.70;;;;;;;;;;5055786;28;20040;-76
2022/01/23 18:03:24;;;;;;;13.48;8.68;;;;;;;;;;5038922;28;20033;-77